sensor_id;sensor_type;location;lat;lon;timestamp;P1;durP1;ratioP1;P2;durP2;ratioP2
16685;SDS011;8456;51.136;4.210;2022-08-19T00:00:26;39.17;;;35.17;;
16685;SDS011;8456;51.136;4.210;2022-08-19T00:02:52;38.47;;;34.53;;
16685;SDS011;8456;51.136;4.210;2022-08-19T00:05:19;38.90;;;34.90;;
16685;SDS011;8456;51.136;4.210;2022-08-19T00:07:46;38.53;;;34.63;;
16685;SDS011;8456;51.136;4.210;2022-08-19T00:10:14;40.00;;;35.97;;
16685;SDS011;8456;51.136;4.210;2022-08-19T00:12:42;40.53;;;35.77;;
16685;SDS011;8456;51.136;4.210;2022-08-19T00:15:09;44.70;;;37.50;;
16685;SDS011;8456;51.136;4.210;2022-08-19T00:17:41;42.27;;;37.80;;
16685;SDS011;8456;51.136;4.210;2022-08-19T00:20:09;43.20;;;38.70;;
16685;SDS011;8456;51.136;4.210;2022-08-19T00:22:37;41.17;;;36.27;;
16685;SDS011;8456;51.136;4.210;2022-08-19T00:25:04;44.50;;;39.70;;
16685;SDS011;8456;51.136;4.210;2022-08-19T00:27:31;44.60;;;39.93;;
16685;SDS011;8456;51.136;4.210;2022-08-19T00:29:57;46.00;;;40.40;;
16685;SDS011;8456;51.136;4.210;2022-08-19T00:32:24;48.73;;;43.03;;
16685;SDS011;8456;51.136;4.210;2022-08-19T00:34:50;47.43;;;42.00;;
16685;SDS011;8456;51.136;4.210;2022-08-19T00:37:21;49.10;;;43.07;;
16685;SDS011;8456;51.136;4.210;2022-08-19T00:39:48;49.60;;;40.90;;
16685;SDS011;8456;51.136;4.210;2022-08-19T00:42:16;48.77;;;42.80;;
16685;SDS011;8456;51.136;4.210;2022-08-19T00:44:45;47.50;;;40.40;;
16685;SDS011;8456;51.136;4.210;2022-08-19T00:47:11;50.97;;;44.63;;
16685;SDS011;8456;51.136;4.210;2022-08-19T00:49:40;51.07;;;44.97;;
16685;SDS011;8456;51.136;4.210;2022-08-19T00:52:15;51.97;;;43.70;;
16685;SDS011;8456;51.136;4.210;2022-08-19T00:54:45;48.63;;;42.17;;
16685;SDS011;8456;51.136;4.210;2022-08-19T00:57:14;49.23;;;41.27;;
16685;SDS011;8456;51.136;4.210;2022-08-19T00:59:44;47.40;;;41.40;;
16685;SDS011;8456;51.136;4.210;2022-08-19T01:02:13;50.30;;;41.97;;
16685;SDS011;8456;51.136;4.210;2022-08-19T01:04:40;46.77;;;41.03;;
16685;SDS011;8456;51.136;4.210;2022-08-19T01:07:05;49.07;;;41.67;;
16685;SDS011;8456;51.136;4.210;2022-08-19T01:09:33;47.10;;;39.10;;
16685;SDS011;8456;51.136;4.210;2022-08-19T01:11:59;50.30;;;41.90;;
16685;SDS011;8456;51.136;4.210;2022-08-19T01:14:25;50.87;;;43.43;;
16685;SDS011;8456;51.136;4.210;2022-08-19T01:16:51;46.03;;;40.20;;
16685;SDS011;8456;51.136;4.210;2022-08-19T01:22:03;50.67;;;41.37;;
16685;SDS011;8456;51.136;4.210;2022-08-19T01:24:49;44.30;;;38.97;;
16685;SDS011;8456;51.136;4.210;2022-08-19T01:27:16;48.03;;;41.83;;
16685;SDS011;8456;51.136;4.210;2022-08-19T01:29:43;53.23;;;43.43;;
16685;SDS011;8456;51.136;4.210;2022-08-19T01:32:13;51.47;;;43.60;;
16685;SDS011;8456;51.136;4.210;2022-08-19T01:34:41;47.87;;;41.33;;
16685;SDS011;8456;51.136;4.210;2022-08-19T01:37:12;54.30;;;42.80;;
16685;SDS011;8456;51.136;4.210;2022-08-19T01:39:39;51.53;;;40.70;;
16685;SDS011;8456;51.136;4.210;2022-08-19T01:42:06;50.40;;;41.57;;
16685;SDS011;8456;51.136;4.210;2022-08-19T01:44:36;49.77;;;41.30;;
16685;SDS011;8456;51.136;4.210;2022-08-19T01:47:03;50.50;;;41.27;;
16685;SDS011;8456;51.136;4.210;2022-08-19T01:49:30;49.53;;;40.83;;
16685;SDS011;8456;51.136;4.210;2022-08-19T01:51:56;52.70;;;42.13;;
16685;SDS011;8456;51.136;4.210;2022-08-19T01:54:23;52.47;;;43.20;;
16685;SDS011;8456;51.136;4.210;2022-08-19T01:56:50;51.33;;;43.20;;
16685;SDS011;8456;51.136;4.210;2022-08-19T01:59:19;50.57;;;41.90;;
16685;SDS011;8456;51.136;4.210;2022-08-19T02:01:47;54.57;;;43.67;;
16685;SDS011;8456;51.136;4.210;2022-08-19T02:04:13;56.43;;;44.67;;
16685;SDS011;8456;51.136;4.210;2022-08-19T02:06:39;49.50;;;42.77;;
16685;SDS011;8456;51.136;4.210;2022-08-19T02:09:06;53.93;;;43.37;;
16685;SDS011;8456;51.136;4.210;2022-08-19T02:11:34;54.97;;;44.20;;
16685;SDS011;8456;51.136;4.210;2022-08-19T02:14:02;53.00;;;43.77;;
16685;SDS011;8456;51.136;4.210;2022-08-19T02:16:30;52.80;;;43.17;;
16685;SDS011;8456;51.136;4.210;2022-08-19T02:18:57;57.07;;;44.37;;
16685;SDS011;8456;51.136;4.210;2022-08-19T02:21:27;56.07;;;44.20;;
16685;SDS011;8456;51.136;4.210;2022-08-19T02:23:53;57.13;;;44.17;;
16685;SDS011;8456;51.136;4.210;2022-08-19T02:26:20;52.63;;;41.57;;
16685;SDS011;8456;51.136;4.210;2022-08-19T02:28:46;52.27;;;40.47;;
16685;SDS011;8456;51.136;4.210;2022-08-19T02:31:18;53.53;;;41.77;;
16685;SDS011;8456;51.136;4.210;2022-08-19T02:33:46;51.77;;;42.90;;
16685;SDS011;8456;51.136;4.210;2022-08-19T02:36:13;52.57;;;42.80;;
16685;SDS011;8456;51.136;4.210;2022-08-19T02:38:41;59.00;;;44.27;;
16685;SDS011;8456;51.136;4.210;2022-08-19T02:41:13;51.07;;;40.50;;
16685;SDS011;8456;51.136;4.210;2022-08-19T02:43:43;48.60;;;39.43;;
16685;SDS011;8456;51.136;4.210;2022-08-19T02:46:21;53.53;;;41.10;;
16685;SDS011;8456;51.136;4.210;2022-08-19T02:48:49;52.27;;;40.80;;
16685;SDS011;8456;51.136;4.210;2022-08-19T02:51:17;51.47;;;38.87;;
16685;SDS011;8456;51.136;4.210;2022-08-19T02:53:45;50.03;;;39.33;;
16685;SDS011;8456;51.136;4.210;2022-08-19T02:56:11;51.97;;;37.83;;
16685;SDS011;8456;51.136;4.210;2022-08-19T02:58:36;48.23;;;38.83;;
16685;SDS011;8456;51.136;4.210;2022-08-19T03:01:02;50.40;;;37.87;;
16685;SDS011;8456;51.136;4.210;2022-08-19T03:03:28;47.23;;;35.17;;
16685;SDS011;8456;51.136;4.210;2022-08-19T03:06:11;46.27;;;33.33;;
16685;SDS011;8456;51.136;4.210;2022-08-19T03:08:39;41.63;;;32.63;;
16685;SDS011;8456;51.136;4.210;2022-08-19T03:11:13;42.13;;;31.77;;
16685;SDS011;8456;51.136;4.210;2022-08-19T03:13:51;41.30;;;31.63;;
16685;SDS011;8456;51.136;4.210;2022-08-19T03:16:19;43.20;;;31.07;;
16685;SDS011;8456;51.136;4.210;2022-08-19T03:18:46;43.53;;;31.70;;
16685;SDS011;8456;51.136;4.210;2022-08-19T03:21:16;43.40;;;30.87;;
16685;SDS011;8456;51.136;4.210;2022-08-19T03:23:44;40.80;;;30.77;;
16685;SDS011;8456;51.136;4.210;2022-08-19T03:26:10;39.03;;;31.20;;
16685;SDS011;8456;51.136;4.210;2022-08-19T03:28:36;42.73;;;30.63;;
16685;SDS011;8456;51.136;4.210;2022-08-19T03:31:04;44.13;;;30.40;;
16685;SDS011;8456;51.136;4.210;2022-08-19T03:33:32;41.17;;;32.60;;
16685;SDS011;8456;51.136;4.210;2022-08-19T03:38:45;49.90;;;33.30;;
16685;SDS011;8456;51.136;4.210;2022-08-19T03:41:14;37.67;;;28.40;;
16685;SDS011;8456;51.136;4.210;2022-08-19T03:43:43;42.93;;;29.50;;
16685;SDS011;8456;51.136;4.210;2022-08-19T03:46:12;44.97;;;29.33;;
16685;SDS011;8456;51.136;4.210;2022-08-19T03:48:43;41.10;;;30.93;;
16685;SDS011;8456;51.136;4.210;2022-08-19T03:51:16;42.97;;;31.40;;
16685;SDS011;8456;51.136;4.210;2022-08-19T03:53:45;42.30;;;29.00;;
16685;SDS011;8456;51.136;4.210;2022-08-19T03:56:11;47.67;;;30.33;;
16685;SDS011;8456;51.136;4.210;2022-08-19T03:58:38;40.27;;;29.53;;
16685;SDS011;8456;51.136;4.210;2022-08-19T04:01:13;41.60;;;31.07;;
16685;SDS011;8456;51.136;4.210;2022-08-19T04:03:44;45.23;;;29.07;;
16685;SDS011;8456;51.136;4.210;2022-08-19T04:06:17;48.17;;;29.50;;
16685;SDS011;8456;51.136;4.210;2022-08-19T04:08:47;37.47;;;28.57;;
16685;SDS011;8456;51.136;4.210;2022-08-19T04:11:16;41.37;;;28.87;;
16685;SDS011;8456;51.136;4.210;2022-08-19T04:13:45;42.03;;;28.43;;
16685;SDS011;8456;51.136;4.210;2022-08-19T04:16:11;43.10;;;28.07;;
16685;SDS011;8456;51.136;4.210;2022-08-19T04:18:37;39.43;;;27.47;;
16685;SDS011;8456;51.136;4.210;2022-08-19T04:21:04;39.70;;;28.87;;
16685;SDS011;8456;51.136;4.210;2022-08-19T04:23:30;40.87;;;26.80;;
16685;SDS011;8456;51.136;4.210;2022-08-19T04:25:56;37.83;;;25.57;;
16685;SDS011;8456;51.136;4.210;2022-08-19T04:28:22;37.07;;;27.50;;
16685;SDS011;8456;51.136;4.210;2022-08-19T04:30:49;38.63;;;26.87;;
16685;SDS011;8456;51.136;4.210;2022-08-19T04:33:19;42.03;;;28.47;;
16685;SDS011;8456;51.136;4.210;2022-08-19T04:35:50;34.03;;;24.73;;
16685;SDS011;8456;51.136;4.210;2022-08-19T04:38:18;36.93;;;27.10;;
16685;SDS011;8456;51.136;4.210;2022-08-19T04:40:46;37.23;;;26.17;;
16685;SDS011;8456;51.136;4.210;2022-08-19T04:43:32;35.07;;;24.57;;
16685;SDS011;8456;51.136;4.210;2022-08-19T04:46:04;37.40;;;27.47;;
16685;SDS011;8456;51.136;4.210;2022-08-19T04:48:31;41.47;;;27.67;;
16685;SDS011;8456;51.136;4.210;2022-08-19T04:50:57;40.53;;;27.03;;
16685;SDS011;8456;51.136;4.210;2022-08-19T04:53:24;33.77;;;26.03;;
16685;SDS011;8456;51.136;4.210;2022-08-19T04:55:55;41.87;;;27.93;;
16685;SDS011;8456;51.136;4.210;2022-08-19T04:58:23;38.50;;;26.27;;
16685;SDS011;8456;51.136;4.210;2022-08-19T05:00:50;37.87;;;26.03;;
16685;SDS011;8456;51.136;4.210;2022-08-19T05:03:16;34.53;;;24.60;;
16685;SDS011;8456;51.136;4.210;2022-08-19T05:05:43;40.50;;;24.77;;
16685;SDS011;8456;51.136;4.210;2022-08-19T05:08:13;37.47;;;24.63;;
16685;SDS011;8456;51.136;4.210;2022-08-19T05:10:44;37.97;;;23.57;;
16685;SDS011;8456;51.136;4.210;2022-08-19T05:13:12;32.80;;;23.07;;
16685;SDS011;8456;51.136;4.210;2022-08-19T05:15:38;36.97;;;24.23;;
16685;SDS011;8456;51.136;4.210;2022-08-19T05:18:03;37.50;;;23.23;;
16685;SDS011;8456;51.136;4.210;2022-08-19T05:20:48;35.53;;;23.83;;
16685;SDS011;8456;51.136;4.210;2022-08-19T05:23:32;31.47;;;21.97;;
16685;SDS011;8456;51.136;4.210;2022-08-19T05:25:58;29.43;;;20.23;;
16685;SDS011;8456;51.136;4.210;2022-08-19T05:28:24;32.30;;;23.23;;
16685;SDS011;8456;51.136;4.210;2022-08-19T05:30:49;31.77;;;21.67;;
16685;SDS011;8456;51.136;4.210;2022-08-19T05:33:16;32.23;;;21.87;;
16685;SDS011;8456;51.136;4.210;2022-08-19T05:35:43;27.90;;;19.43;;
16685;SDS011;8456;51.136;4.210;2022-08-19T05:38:11;28.17;;;20.67;;
16685;SDS011;8456;51.136;4.210;2022-08-19T05:40:38;26.93;;;19.57;;
16685;SDS011;8456;51.136;4.210;2022-08-19T05:43:05;25.80;;;18.77;;
16685;SDS011;8456;51.136;4.210;2022-08-19T05:45:32;26.97;;;18.87;;
16685;SDS011;8456;51.136;4.210;2022-08-19T05:48:02;26.30;;;19.47;;
16685;SDS011;8456;51.136;4.210;2022-08-19T05:50:28;22.30;;;17.17;;
16685;SDS011;8456;51.136;4.210;2022-08-19T05:52:54;27.60;;;18.47;;
16685;SDS011;8456;51.136;4.210;2022-08-19T05:55:20;24.93;;;17.70;;
16685;SDS011;8456;51.136;4.210;2022-08-19T05:57:47;23.07;;;17.77;;
16685;SDS011;8456;51.136;4.210;2022-08-19T06:00:13;29.93;;;16.37;;
16685;SDS011;8456;51.136;4.210;2022-08-19T06:02:39;19.40;;;15.53;;
16685;SDS011;8456;51.136;4.210;2022-08-19T06:05:06;26.20;;;16.97;;
16685;SDS011;8456;51.136;4.210;2022-08-19T06:07:37;27.00;;;16.77;;
16685;SDS011;8456;51.136;4.210;2022-08-19T06:10:05;21.03;;;16.10;;
16685;SDS011;8456;51.136;4.210;2022-08-19T06:12:34;18.87;;;14.40;;
16685;SDS011;8456;51.136;4.210;2022-08-19T06:15:02;22.67;;;13.80;;
16685;SDS011;8456;51.136;4.210;2022-08-19T06:17:30;19.23;;;14.20;;
16685;SDS011;8456;51.136;4.210;2022-08-19T06:19:56;21.87;;;13.90;;
16685;SDS011;8456;51.136;4.210;2022-08-19T06:22:23;20.33;;;14.03;;
16685;SDS011;8456;51.136;4.210;2022-08-19T06:24:49;21.87;;;14.40;;
16685;SDS011;8456;51.136;4.210;2022-08-19T06:27:17;19.53;;;14.50;;
16685;SDS011;8456;51.136;4.210;2022-08-19T06:29:44;20.73;;;13.80;;
16685;SDS011;8456;51.136;4.210;2022-08-19T06:32:11;20.87;;;14.03;;
16685;SDS011;8456;51.136;4.210;2022-08-19T06:34:39;21.77;;;14.03;;
16685;SDS011;8456;51.136;4.210;2022-08-19T06:37:06;22.70;;;14.47;;
16685;SDS011;8456;51.136;4.210;2022-08-19T06:39:34;21.37;;;14.17;;
16685;SDS011;8456;51.136;4.210;2022-08-19T06:42:03;24.47;;;13.93;;
16685;SDS011;8456;51.136;4.210;2022-08-19T06:44:34;23.17;;;15.03;;
16685;SDS011;8456;51.136;4.210;2022-08-19T06:47:05;21.23;;;13.73;;
16685;SDS011;8456;51.136;4.210;2022-08-19T06:49:33;18.37;;;12.63;;
16685;SDS011;8456;51.136;4.210;2022-08-19T06:51:59;17.63;;;13.20;;
16685;SDS011;8456;51.136;4.210;2022-08-19T06:54:26;21.53;;;13.03;;
16685;SDS011;8456;51.136;4.210;2022-08-19T06:56:54;20.10;;;13.77;;
16685;SDS011;8456;51.136;4.210;2022-08-19T06:59:22;24.40;;;13.17;;
16685;SDS011;8456;51.136;4.210;2022-08-19T07:01:53;18.07;;;12.60;;
16685;SDS011;8456;51.136;4.210;2022-08-19T07:04:21;20.80;;;13.20;;
16685;SDS011;8456;51.136;4.210;2022-08-19T07:06:50;20.27;;;13.40;;
16685;SDS011;8456;51.136;4.210;2022-08-19T07:09:21;24.57;;;13.27;;
16685;SDS011;8456;51.136;4.210;2022-08-19T07:11:49;18.70;;;13.27;;
16685;SDS011;8456;51.136;4.210;2022-08-19T07:14:20;18.17;;;13.57;;
16685;SDS011;8456;51.136;4.210;2022-08-19T07:16:49;20.10;;;12.97;;
16685;SDS011;8456;51.136;4.210;2022-08-19T07:19:17;17.67;;;13.40;;
16685;SDS011;8456;51.136;4.210;2022-08-19T07:21:43;25.43;;;13.37;;
16685;SDS011;8456;51.136;4.210;2022-08-19T07:24:10;23.03;;;13.70;;
16685;SDS011;8456;51.136;4.210;2022-08-19T07:26:38;21.53;;;13.30;;
16685;SDS011;8456;51.136;4.210;2022-08-19T07:29:06;23.97;;;12.73;;
16685;SDS011;8456;51.136;4.210;2022-08-19T07:31:32;17.80;;;12.17;;
16685;SDS011;8456;51.136;4.210;2022-08-19T07:34:02;23.70;;;12.10;;
16685;SDS011;8456;51.136;4.210;2022-08-19T07:36:32;15.37;;;11.70;;
16685;SDS011;8456;51.136;4.210;2022-08-19T07:39:00;13.87;;;11.10;;
16685;SDS011;8456;51.136;4.210;2022-08-19T07:41:29;17.63;;;11.30;;
16685;SDS011;8456;51.136;4.210;2022-08-19T07:43:57;18.57;;;12.20;;
16685;SDS011;8456;51.136;4.210;2022-08-19T07:46:32;13.00;;;11.43;;
16685;SDS011;8456;51.136;4.210;2022-08-19T07:48:59;19.57;;;11.93;;
16685;SDS011;8456;51.136;4.210;2022-08-19T07:51:25;13.60;;;11.37;;
16685;SDS011;8456;51.136;4.210;2022-08-19T07:53:52;16.10;;;11.67;;
16685;SDS011;8456;51.136;4.210;2022-08-19T07:56:19;17.93;;;10.40;;
16685;SDS011;8456;51.136;4.210;2022-08-19T07:58:46;18.23;;;11.20;;
16685;SDS011;8456;51.136;4.210;2022-08-19T08:01:15;14.50;;;11.10;;
16685;SDS011;8456;51.136;4.210;2022-08-19T08:03:47;14.70;;;10.37;;
16685;SDS011;8456;51.136;4.210;2022-08-19T08:06:32;16.10;;;10.37;;
16685;SDS011;8456;51.136;4.210;2022-08-19T08:09:19;14.60;;;11.03;;
16685;SDS011;8456;51.136;4.210;2022-08-19T08:11:50;16.13;;;9.27;;
16685;SDS011;8456;51.136;4.210;2022-08-19T08:14:17;14.60;;;9.30;;
16685;SDS011;8456;51.136;4.210;2022-08-19T08:16:47;15.10;;;9.83;;
16685;SDS011;8456;51.136;4.210;2022-08-19T08:19:15;19.37;;;9.47;;
16685;SDS011;8456;51.136;4.210;2022-08-19T08:21:41;11.00;;;9.30;;
16685;SDS011;8456;51.136;4.210;2022-08-19T08:24:07;13.27;;;9.13;;
16685;SDS011;8456;51.136;4.210;2022-08-19T08:26:33;15.63;;;10.13;;
16685;SDS011;8456;51.136;4.210;2022-08-19T08:28:59;12.87;;;9.10;;
16685;SDS011;8456;51.136;4.210;2022-08-19T08:31:25;10.60;;;9.47;;
16685;SDS011;8456;51.136;4.210;2022-08-19T08:33:51;11.43;;;9.37;;
16685;SDS011;8456;51.136;4.210;2022-08-19T08:36:17;13.50;;;9.67;;
16685;SDS011;8456;51.136;4.210;2022-08-19T08:38:43;14.47;;;10.10;;
16685;SDS011;8456;51.136;4.210;2022-08-19T08:41:35;12.47;;;9.47;;
16685;SDS011;8456;51.136;4.210;2022-08-19T08:44:06;12.13;;;9.27;;
16685;SDS011;8456;51.136;4.210;2022-08-19T08:46:37;10.77;;;8.97;;
16685;SDS011;8456;51.136;4.210;2022-08-19T08:51:39;13.47;;;9.07;;
16685;SDS011;8456;51.136;4.210;2022-08-19T08:54:12;11.53;;;9.10;;
16685;SDS011;8456;51.136;4.210;2022-08-19T08:56:42;13.50;;;8.97;;
16685;SDS011;8456;51.136;4.210;2022-08-19T08:59:14;14.17;;;8.97;;
16685;SDS011;8456;51.136;4.210;2022-08-19T09:02:01;12.57;;;9.43;;
16685;SDS011;8456;51.136;4.210;2022-08-19T09:04:27;14.77;;;10.40;;
16685;SDS011;8456;51.136;4.210;2022-08-19T09:09:42;15.50;;;11.17;;
16685;SDS011;8456;51.136;4.210;2022-08-19T09:14:57;17.33;;;12.17;;
16685;SDS011;8456;51.136;4.210;2022-08-19T09:17:28;14.97;;;11.23;;
16685;SDS011;8456;51.136;4.210;2022-08-19T09:20:00;13.97;;;9.97;;
16685;SDS011;8456;51.136;4.210;2022-08-19T09:22:34;17.47;;;10.80;;
16685;SDS011;8456;51.136;4.210;2022-08-19T09:25:01;13.57;;;10.00;;
16685;SDS011;8456;51.136;4.210;2022-08-19T09:27:27;12.17;;;9.83;;
16685;SDS011;8456;51.136;4.210;2022-08-19T09:29:54;18.37;;;10.87;;
16685;SDS011;8456;51.136;4.210;2022-08-19T09:32:21;15.87;;;10.13;;
16685;SDS011;8456;51.136;4.210;2022-08-19T09:34:47;12.53;;;9.73;;
16685;SDS011;8456;51.136;4.210;2022-08-19T09:37:13;18.27;;;10.07;;
16685;SDS011;8456;51.136;4.210;2022-08-19T09:39:39;18.63;;;11.10;;
16685;SDS011;8456;51.136;4.210;2022-08-19T09:42:06;15.33;;;10.37;;
16685;SDS011;8456;51.136;4.210;2022-08-19T09:44:40;15.67;;;9.93;;
16685;SDS011;8456;51.136;4.210;2022-08-19T09:47:06;14.97;;;9.53;;
16685;SDS011;8456;51.136;4.210;2022-08-19T09:49:33;15.23;;;9.97;;
16685;SDS011;8456;51.136;4.210;2022-08-19T09:51:59;12.40;;;9.70;;
16685;SDS011;8456;51.136;4.210;2022-08-19T09:54:25;12.33;;;8.83;;
16685;SDS011;8456;51.136;4.210;2022-08-19T09:56:55;14.17;;;9.60;;
16685;SDS011;8456;51.136;4.210;2022-08-19T09:59:23;20.67;;;10.60;;
16685;SDS011;8456;51.136;4.210;2022-08-19T10:01:49;14.30;;;10.53;;
16685;SDS011;8456;51.136;4.210;2022-08-19T10:04:16;18.03;;;11.10;;
16685;SDS011;8456;51.136;4.210;2022-08-19T10:06:41;17.07;;;11.17;;
16685;SDS011;8456;51.136;4.210;2022-08-19T10:09:08;16.83;;;11.03;;
16685;SDS011;8456;51.136;4.210;2022-08-19T10:11:36;17.10;;;11.10;;
16685;SDS011;8456;51.136;4.210;2022-08-19T10:14:05;18.63;;;10.60;;
16685;SDS011;8456;51.136;4.210;2022-08-19T10:16:32;14.53;;;11.27;;
16685;SDS011;8456;51.136;4.210;2022-08-19T10:18:58;15.33;;;10.90;;
16685;SDS011;8456;51.136;4.210;2022-08-19T10:21:28;15.90;;;10.30;;
16685;SDS011;8456;51.136;4.210;2022-08-19T10:24:00;14.80;;;10.90;;
16685;SDS011;8456;51.136;4.210;2022-08-19T10:26:39;15.63;;;10.47;;
16685;SDS011;8456;51.136;4.210;2022-08-19T10:29:12;11.03;;;9.50;;
16685;SDS011;8456;51.136;4.210;2022-08-19T10:31:41;14.57;;;10.23;;
16685;SDS011;8456;51.136;4.210;2022-08-19T10:34:07;11.57;;;9.47;;
16685;SDS011;8456;51.136;4.210;2022-08-19T10:36:35;15.73;;;9.30;;
16685;SDS011;8456;51.136;4.210;2022-08-19T10:39:06;10.13;;;9.03;;
16685;SDS011;8456;51.136;4.210;2022-08-19T10:41:35;11.47;;;8.87;;
16685;SDS011;8456;51.136;4.210;2022-08-19T10:44:03;10.97;;;9.13;;
16685;SDS011;8456;51.136;4.210;2022-08-19T10:46:34;10.33;;;8.37;;
16685;SDS011;8456;51.136;4.210;2022-08-19T10:49:03;11.63;;;9.00;;
16685;SDS011;8456;51.136;4.210;2022-08-19T10:51:30;10.83;;;9.20;;
16685;SDS011;8456;51.136;4.210;2022-08-19T10:54:16;10.93;;;9.20;;
16685;SDS011;8456;51.136;4.210;2022-08-19T10:56:42;9.33;;;8.33;;
16685;SDS011;8456;51.136;4.210;2022-08-19T10:59:21;11.40;;;8.80;;
16685;SDS011;8456;51.136;4.210;2022-08-19T11:01:49;11.43;;;9.27;;
16685;SDS011;8456;51.136;4.210;2022-08-19T11:04:18;9.40;;;8.20;;
16685;SDS011;8456;51.136;4.210;2022-08-19T11:06:45;12.90;;;7.60;;
16685;SDS011;8456;51.136;4.210;2022-08-19T11:09:13;11.47;;;7.87;;
16685;SDS011;8456;51.136;4.210;2022-08-19T11:11:46;12.97;;;8.17;;
16685;SDS011;8456;51.136;4.210;2022-08-19T11:14:16;9.97;;;7.37;;
16685;SDS011;8456;51.136;4.210;2022-08-19T11:16:46;8.40;;;7.27;;
16685;SDS011;8456;51.136;4.210;2022-08-19T11:19:13;8.87;;;7.67;;
16685;SDS011;8456;51.136;4.210;2022-08-19T11:21:43;11.77;;;8.13;;
16685;SDS011;8456;51.136;4.210;2022-08-19T11:24:12;10.87;;;6.90;;
16685;SDS011;8456;51.136;4.210;2022-08-19T11:26:45;10.03;;;6.73;;
16685;SDS011;8456;51.136;4.210;2022-08-19T11:29:13;7.20;;;6.50;;
16685;SDS011;8456;51.136;4.210;2022-08-19T11:31:40;7.30;;;6.23;;
16685;SDS011;8456;51.136;4.210;2022-08-19T11:34:09;7.50;;;6.10;;
16685;SDS011;8456;51.136;4.210;2022-08-19T11:36:39;7.53;;;5.60;;
16685;SDS011;8456;51.136;4.210;2022-08-19T11:39:07;7.90;;;5.50;;
16685;SDS011;8456;51.136;4.210;2022-08-19T11:41:34;5.70;;;4.70;;
16685;SDS011;8456;51.136;4.210;2022-08-19T11:44:01;8.07;;;5.13;;
16685;SDS011;8456;51.136;4.210;2022-08-19T11:46:28;5.70;;;4.23;;
16685;SDS011;8456;51.136;4.210;2022-08-19T11:48:55;6.07;;;4.50;;
16685;SDS011;8456;51.136;4.210;2022-08-19T11:51:24;7.07;;;4.10;;
16685;SDS011;8456;51.136;4.210;2022-08-19T11:53:51;5.37;;;3.83;;
16685;SDS011;8456;51.136;4.210;2022-08-19T11:56:19;7.37;;;3.73;;
16685;SDS011;8456;51.136;4.210;2022-08-19T11:58:45;7.00;;;4.13;;
16685;SDS011;8456;51.136;4.210;2022-08-19T12:01:12;4.83;;;3.60;;
16685;SDS011;8456;51.136;4.210;2022-08-19T12:03:46;5.17;;;2.97;;
16685;SDS011;8456;51.136;4.210;2022-08-19T12:06:14;5.53;;;3.20;;
16685;SDS011;8456;51.136;4.210;2022-08-19T12:08:42;6.23;;;3.87;;
16685;SDS011;8456;51.136;4.210;2022-08-19T12:11:09;6.87;;;3.87;;
16685;SDS011;8456;51.136;4.210;2022-08-19T12:13:36;6.83;;;4.70;;
16685;SDS011;8456;51.136;4.210;2022-08-19T12:16:20;6.00;;;4.13;;
16685;SDS011;8456;51.136;4.210;2022-08-19T12:18:48;5.47;;;3.47;;
16685;SDS011;8456;51.136;4.210;2022-08-19T12:21:17;3.30;;;3.00;;
16685;SDS011;8456;51.136;4.210;2022-08-19T12:23:46;6.80;;;2.40;;
16685;SDS011;8456;51.136;4.210;2022-08-19T12:26:14;3.67;;;1.80;;
16685;SDS011;8456;51.136;4.210;2022-08-19T12:28:41;2.50;;;1.73;;
16685;SDS011;8456;51.136;4.210;2022-08-19T12:31:07;6.83;;;2.20;;
16685;SDS011;8456;51.136;4.210;2022-08-19T12:33:33;2.77;;;2.53;;
16685;SDS011;8456;51.136;4.210;2022-08-19T12:36:01;2.83;;;1.80;;
16685;SDS011;8456;51.136;4.210;2022-08-19T12:38:29;3.77;;;2.10;;
16685;SDS011;8456;51.136;4.210;2022-08-19T12:40:55;3.67;;;2.10;;
16685;SDS011;8456;51.136;4.210;2022-08-19T12:43:20;6.87;;;2.27;;
16685;SDS011;8456;51.136;4.210;2022-08-19T12:45:46;6.77;;;2.00;;
16685;SDS011;8456;51.136;4.210;2022-08-19T12:48:12;4.27;;;1.97;;
16685;SDS011;8456;51.136;4.210;2022-08-19T12:50:39;2.53;;;1.93;;
16685;SDS011;8456;51.136;4.210;2022-08-19T12:53:06;2.97;;;1.97;;
16685;SDS011;8456;51.136;4.210;2022-08-19T12:55:32;4.60;;;2.17;;
16685;SDS011;8456;51.136;4.210;2022-08-19T12:57:58;6.40;;;2.50;;
16685;SDS011;8456;51.136;4.210;2022-08-19T13:00:26;2.80;;;2.37;;
16685;SDS011;8456;51.136;4.210;2022-08-19T13:02:52;6.67;;;2.20;;
16685;SDS011;8456;51.136;4.210;2022-08-19T13:05:20;4.43;;;2.60;;
16685;SDS011;8456;51.136;4.210;2022-08-19T13:07:52;6.43;;;2.70;;
16685;SDS011;8456;51.136;4.210;2022-08-19T13:10:22;4.90;;;2.60;;
16685;SDS011;8456;51.136;4.210;2022-08-19T13:12:50;3.23;;;2.00;;
16685;SDS011;8456;51.136;4.210;2022-08-19T13:15:17;3.07;;;1.83;;
16685;SDS011;8456;51.136;4.210;2022-08-19T13:17:46;2.93;;;2.50;;
16685;SDS011;8456;51.136;4.210;2022-08-19T13:20:14;2.50;;;1.90;;
16685;SDS011;8456;51.136;4.210;2022-08-19T13:22:41;5.40;;;2.40;;
16685;SDS011;8456;51.136;4.210;2022-08-19T13:25:08;4.17;;;2.30;;
16685;SDS011;8456;51.136;4.210;2022-08-19T13:27:34;10.60;;;2.40;;
16685;SDS011;8456;51.136;4.210;2022-08-19T13:30:01;6.37;;;2.40;;
16685;SDS011;8456;51.136;4.210;2022-08-19T13:32:46;5.33;;;2.27;;
16685;SDS011;8456;51.136;4.210;2022-08-19T13:35:30;2.63;;;2.13;;
16685;SDS011;8456;51.136;4.210;2022-08-19T13:37:56;7.23;;;3.33;;
16685;SDS011;8456;51.136;4.210;2022-08-19T13:40:22;5.73;;;3.20;;
16685;SDS011;8456;51.136;4.210;2022-08-19T13:42:52;3.13;;;2.70;;
16685;SDS011;8456;51.136;4.210;2022-08-19T13:45:20;8.70;;;2.77;;
16685;SDS011;8456;51.136;4.210;2022-08-19T13:47:48;5.27;;;2.97;;
16685;SDS011;8456;51.136;4.210;2022-08-19T13:50:16;4.87;;;2.77;;
16685;SDS011;8456;51.136;4.210;2022-08-19T13:52:45;5.97;;;2.90;;
16685;SDS011;8456;51.136;4.210;2022-08-19T13:55:12;6.23;;;2.80;;
16685;SDS011;8456;51.136;4.210;2022-08-19T13:57:40;7.23;;;2.37;;
16685;SDS011;8456;51.136;4.210;2022-08-19T14:00:10;4.27;;;2.10;;
16685;SDS011;8456;51.136;4.210;2022-08-19T14:02:39;2.37;;;1.90;;
16685;SDS011;8456;51.136;4.210;2022-08-19T14:05:05;5.47;;;1.60;;
16685;SDS011;8456;51.136;4.210;2022-08-19T14:07:34;12.00;;;1.80;;
16685;SDS011;8456;51.136;4.210;2022-08-19T14:10:01;1.53;;;1.30;;
16685;SDS011;8456;51.136;4.210;2022-08-19T14:12:27;7.63;;;1.70;;
16685;SDS011;8456;51.136;4.210;2022-08-19T14:14:53;5.37;;;1.97;;
16685;SDS011;8456;51.136;4.210;2022-08-19T14:17:19;3.17;;;1.27;;
16685;SDS011;8456;51.136;4.210;2022-08-19T14:19:44;6.93;;;1.97;;
16685;SDS011;8456;51.136;4.210;2022-08-19T14:22:10;23.37;;;2.97;;
16685;SDS011;8456;51.136;4.210;2022-08-19T14:24:39;16.13;;;1.20;;
16685;SDS011;8456;51.136;4.210;2022-08-19T14:27:05;38.13;;;3.23;;
16685;SDS011;8456;51.136;4.210;2022-08-19T14:29:31;16.57;;;2.10;;
16685;SDS011;8456;51.136;4.210;2022-08-19T14:31:58;10.60;;;2.00;;
16685;SDS011;8456;51.136;4.210;2022-08-19T14:34:24;13.77;;;2.40;;
16685;SDS011;8456;51.136;4.210;2022-08-19T14:36:51;13.07;;;3.10;;
16685;SDS011;8456;51.136;4.210;2022-08-19T14:39:17;4.67;;;1.30;;
16685;SDS011;8456;51.136;4.210;2022-08-19T14:41:43;4.10;;;1.60;;
16685;SDS011;8456;51.136;4.210;2022-08-19T14:44:10;4.07;;;1.43;;
16685;SDS011;8456;51.136;4.210;2022-08-19T14:46:38;2.50;;;1.10;;
16685;SDS011;8456;51.136;4.210;2022-08-19T14:49:05;3.90;;;1.20;;
16685;SDS011;8456;51.136;4.210;2022-08-19T14:51:31;6.80;;;1.50;;
16685;SDS011;8456;51.136;4.210;2022-08-19T14:53:57;2.43;;;1.47;;
16685;SDS011;8456;51.136;4.210;2022-08-19T14:56:24;7.13;;;1.73;;
16685;SDS011;8456;51.136;4.210;2022-08-19T14:58:53;3.13;;;1.20;;
16685;SDS011;8456;51.136;4.210;2022-08-19T15:01:19;5.03;;;1.30;;
16685;SDS011;8456;51.136;4.210;2022-08-19T15:03:47;3.63;;;1.20;;